X  Lukk Metar værinformasjon om luftfart     LYNI Nis Airport
Temperatur
32°F Temperatur
28°F Duggpunkt
87% Luftfuktighet



Vind
1 MPT
2 KM/T
0 M/S
1 KNP



Stille
N
Nåværende forhold

For det meste Overskyet For det meste Overskyet
Trykk 1015.92 (hPa) - 30 (inHg)
Sikt 5 (mil) - 8 (km)
Flyplass
Flyplass-kode LYNI

Plassering: Nis Airport
Avstand: 63 (mi)

Metar:
LYNI 310300Z VRB01KT 8000 BKN017 00/M02 Q1016 NOSIG

Tid: 31-01-2023 04:00 CET